Time;durP1;ratioP1;P1;durP2;ratioP2;P2;SDS_P1;SDS_P2;PMS_P1;PMS_P2;Temp;Humidity;BMP_temperature;BMP_pressure;BME280_temperature;BME280_humidity;BME280_pressure;Samples;Min_cycle;Max_cycle;Signal;HPM_P1;HPM_P2
2023/08/13 00:00:50;;;;;;;6.57;5.22;;;17.10;99.90;;;;;;5053322;28;20064;-66
2023/08/13 00:03:15;;;;;;;7.13;5.25;;;17.10;99.90;;;;;;5052055;28;20053;-66
2023/08/13 00:05:41;;;;;;;4.95;4.55;;;17.20;99.90;;;;;;5052251;28;20084;-66
2023/08/13 00:08:07;;;;;;;7.10;4.95;;;17.20;99.90;;;;;;5053259;28;20021;-66
2023/08/13 00:10:32;;;;;;;5.75;5.25;;;17.20;99.90;;;;;;5053258;28;20471;-66
2023/08/13 00:12:58;;;;;;;5.05;4.55;;;17.20;99.90;;;;;;5053296;28;20029;-66
2023/08/13 00:15:24;;;;;;;6.75;4.47;;;17.20;99.90;;;;;;5053497;28;20082;-66
2023/08/13 00:17:49;;;;;;;7.05;4.85;;;17.20;99.90;;;;;;5052887;28;20394;-66
2023/08/13 00:20:15;;;;;;;8.32;5.55;;;17.20;99.90;;;;;;5051893;28;20029;-66
2023/08/13 00:22:41;;;;;;;5.95;4.82;;;17.20;99.90;;;;;;5053403;28;20021;-66
2023/08/13 00:25:07;;;;;;;6.75;4.88;;;17.10;99.90;;;;;;5053309;28;20041;-65
2023/08/13 00:27:33;;;;;;;5.15;4.72;;;17.10;99.90;;;;;;5053052;28;20494;-66
2023/08/13 00:29:59;;;;;;;7.80;4.63;;;17.10;99.90;;;;;;5053112;28;20021;-66
2023/08/13 00:32:24;;;;;;;7.47;4.90;;;17.10;99.90;;;;;;5054481;28;20029;-66
2023/08/13 00:34:50;;;;;;;5.03;4.53;;;17.10;99.90;;;;;;5057103;28;20413;-66
2023/08/13 00:37:16;;;;;;;5.20;4.03;;;17.10;99.90;;;;;;5056710;28;20112;-66
2023/08/13 00:39:42;;;;;;;6.65;5.10;;;17.10;99.90;;;;;;5056735;28;20070;-66
2023/08/13 00:42:08;;;;;;;5.03;4.45;;;17.10;99.90;;;;;;5056907;28;20033;-66
2023/08/13 00:44:33;;;;;;;5.75;4.75;;;17.10;99.90;;;;;;5056888;28;20029;-66
2023/08/13 00:46:59;;;;;;;6.03;4.82;;;17.10;99.90;;;;;;5056472;28;20124;-66
2023/08/13 00:49:25;;;;;;;6.40;4.65;;;17.10;99.90;;;;;;5056575;28;20107;-66
2023/08/13 00:51:51;;;;;;;7.95;5.45;;;17.10;99.90;;;;;;5056810;28;20462;-66
2023/08/13 00:54:17;;;;;;;6.05;4.82;;;17.20;99.90;;;;;;5056437;28;20082;-66
2023/08/13 00:56:46;;;;;;;4.82;4.43;;;17.20;99.90;;;;;;5056373;28;20074;-66
2023/08/13 00:59:12;;;;;;;8.05;4.68;;;17.20;99.90;;;;;;5056366;28;20028;-66
2023/08/13 01:01:38;;;;;;;6.53;4.88;;;17.20;99.90;;;;;;5055420;28;20356;-66
2023/08/13 01:04:04;;;;;;;7.72;4.82;;;17.20;99.90;;;;;;5056388;28;20031;-66
2023/08/13 01:06:51;;;;;;;8.95;4.88;;;17.30;99.90;;;;;;5054852;28;20033;-66
2023/08/13 01:09:35;;;;;;;6.00;4.65;;;17.30;99.90;;;;;;5056170;28;20379;-66
2023/08/13 01:12:27;;;;;;;5.90;5.00;;;17.30;99.90;;;;;;5056332;28;20021;-66
2023/08/13 01:15:06;;;;;;;4.85;4.30;;;17.40;99.90;;;;;;5056123;28;20029;-66
2023/08/13 01:17:35;;;;;;;5.57;4.80;;;17.30;99.90;;;;;;5056229;28;20029;-66
2023/08/13 01:20:07;;;;;;;5.15;4.65;;;17.40;99.90;;;;;;5055890;28;20090;-66
2023/08/13 01:22:39;;;;;;;5.53;4.60;;;17.40;99.90;;;;;;5054687;28;20470;-66
2023/08/13 01:25:09;;;;;;;5.10;4.60;;;17.40;99.90;;;;;;5056537;28;20097;-66
2023/08/13 01:27:38;;;;;;;4.93;4.53;;;17.40;99.90;;;;;;5055796;28;20481;-66
2023/08/13 01:30:13;;;;;;;6.28;4.78;;;17.40;99.90;;;;;;5055822;28;20108;-66
2023/08/13 01:32:59;;;;;;;6.75;4.32;;;17.40;99.90;;;;;;5054510;28;20466;-66
2023/08/13 01:35:26;;;;;;;5.57;5.07;;;17.40;99.90;;;;;;5054725;28;20033;-66
2023/08/13 01:37:54;;;;;;;4.93;4.40;;;17.40;99.90;;;;;;5055713;28;20056;-66
2023/08/13 01:40:19;;;;;;;5.13;4.50;;;17.40;99.90;;;;;;5054472;28;20112;-66
2023/08/13 01:42:45;;;;;;;6.18;4.68;;;17.40;99.90;;;;;;5055602;28;20500;-66
2023/08/13 01:45:11;;;;;;;5.13;4.63;;;17.40;99.90;;;;;;5054629;28;20021;-67
2023/08/13 01:47:36;;;;;;;6.18;4.78;;;17.40;99.90;;;;;;5055114;28;20045;-66
2023/08/13 01:50:02;;;;;;;5.45;5.03;;;17.40;99.90;;;;;;5054315;28;20463;-66
2023/08/13 01:52:28;;;;;;;7.28;4.93;;;17.30;99.90;;;;;;5055146;28;20032;-66
2023/08/13 01:54:54;;;;;;;4.72;4.32;;;17.30;99.90;;;;;;5055397;28;20092;-66
2023/08/13 01:57:20;;;;;;;6.70;4.93;;;17.20;99.90;;;;;;5055252;28;20025;-66
2023/08/13 01:59:45;;;;;;;5.55;5.05;;;17.10;99.90;;;;;;5055468;28;20115;-66
2023/08/13 02:02:11;;;;;;;5.90;5.15;;;17.10;99.90;;;;;;5054911;28;20489;-66
2023/08/13 02:04:36;;;;;;;8.50;6.05;;;17.00;99.90;;;;;;5055139;28;20021;-66
2023/08/13 02:07:02;;;;;;;5.40;4.90;;;17.00;99.90;;;;;;5053736;28;20037;-66
2023/08/13 02:09:28;;;;;;;6.13;5.13;;;17.00;99.90;;;;;;5055036;28;20037;-66
2023/08/13 02:11:54;;;;;;;7.15;5.55;;;17.00;99.90;;;;;;5053785;28;20120;-66
2023/08/13 02:14:20;;;;;;;9.25;6.07;;;16.90;99.90;;;;;;5053360;28;20025;-66
2023/08/13 02:16:45;;;;;;;6.15;5.28;;;16.90;99.90;;;;;;5054619;28;20040;-66
2023/08/13 02:19:11;;;;;;;6.35;5.25;;;16.90;99.90;;;;;;5053593;28;20078;-66
2023/08/13 02:21:37;;;;;;;6.63;5.90;;;16.90;99.90;;;;;;5054505;28;20378;-66
2023/08/13 02:24:03;;;;;;;5.70;5.18;;;16.90;99.90;;;;;;5054868;28;20105;-66
2023/08/13 02:26:28;;;;;;;6.03;5.40;;;16.90;99.90;;;;;;5054794;28;20167;-66
2023/08/13 02:28:54;;;;;;;6.32;5.72;;;16.80;99.90;;;;;;5054696;28;20497;-66
2023/08/13 02:31:19;;;;;;;8.45;5.35;;;16.80;99.90;;;;;;5054624;28;20465;-66
2023/08/13 02:33:45;;;;;;;6.57;5.97;;;16.80;99.90;;;;;;5054261;28;20060;-66
2023/08/13 02:36:11;;;;;;;6.10;5.50;;;16.70;99.90;;;;;;5054262;28;20033;-66
2023/08/13 02:38:36;;;;;;;8.35;6.10;;;16.60;99.90;;;;;;5054476;28;20032;-66
2023/08/13 02:41:02;;;;;;;6.07;5.57;;;16.70;99.90;;;;;;5054451;28;20017;-66
2023/08/13 02:43:31;;;;;;;7.10;6.00;;;16.60;99.90;;;;;;5054411;28;20029;-66
2023/08/13 02:45:57;;;;;;;6.47;5.88;;;16.60;99.90;;;;;;5054272;28;20036;-66
2023/08/13 02:48:22;;;;;;;6.88;6.18;;;16.60;99.90;;;;;;5054204;28;20043;-66
2023/08/13 02:50:48;;;;;;;7.45;5.80;;;16.50;99.90;;;;;;5054196;28;20057;-66
2023/08/13 02:53:13;;;;;;;6.30;5.70;;;16.50;99.90;;;;;;5054198;28;20033;-66
2023/08/13 02:55:39;;;;;;;7.43;5.82;;;16.50;99.90;;;;;;5053393;28;20075;-66
2023/08/13 02:58:05;;;;;;;9.43;6.10;;;16.50;99.90;;;;;;5052773;28;20044;-66
2023/08/13 03:00:30;;;;;;;9.73;6.43;;;16.40;99.90;;;;;;5052778;28;20061;-66
2023/08/13 03:02:56;;;;;;;7.40;6.35;;;16.40;99.90;;;;;;5054172;28;20030;-66
2023/08/13 03:05:21;;;;;;;7.10;6.40;;;16.40;99.90;;;;;;5053998;28;20129;-66
2023/08/13 03:07:47;;;;;;;6.68;6.05;;;16.40;99.90;;;;;;5053889;28;20040;-66
2023/08/13 03:10:13;;;;;;;8.50;7.15;;;16.40;99.90;;;;;;5054087;28;20573;-66
2023/08/13 03:12:38;;;;;;;7.65;6.95;;;16.40;99.90;;;;;;5054288;28;20441;-66
2023/08/13 03:15:04;;;;;;;8.70;7.80;;;16.40;99.90;;;;;;5052585;28;20029;-66
2023/08/13 03:17:30;;;;;;;12.90;6.65;;;16.30;99.90;;;;;;5053840;28;20040;-66
2023/08/13 03:19:57;;;;;;;8.25;6.53;;;16.30;99.90;;;;;;5052509;28;20076;-66
2023/08/13 03:22:23;;;;;;;10.90;6.90;;;16.30;99.90;;;;;;5052481;28;20063;-66
2023/08/13 03:24:48;;;;;;;9.27;7.47;;;16.30;99.90;;;;;;5053362;28;20077;-66
2023/08/13 03:27:14;;;;;;;7.28;6.38;;;16.30;99.90;;;;;;5053472;28;20083;-66
2023/08/13 03:29:40;;;;;;;7.28;6.40;;;16.20;99.90;;;;;;5052495;28;20021;-66
2023/08/13 03:32:05;;;;;;;7.55;6.70;;;16.20;99.90;;;;;;5053641;28;20111;-66
2023/08/13 03:34:31;;;;;;;8.15;6.55;;;16.10;99.90;;;;;;5053627;28;20025;-66
2023/08/13 03:36:56;;;;;;;9.13;7.43;;;16.10;99.90;;;;;;5052379;28;20067;-66
2023/08/13 03:39:22;;;;;;;8.15;7.32;;;16.10;99.90;;;;;;5053605;28;20103;-66
2023/08/13 03:41:48;;;;;;;8.45;6.90;;;16.10;99.90;;;;;;5053563;28;20454;-66
2023/08/13 03:44:13;;;;;;;7.43;6.60;;;16.10;99.90;;;;;;5053553;28;20025;-66
2023/08/13 03:46:39;;;;;;;8.07;7.28;;;16.10;99.90;;;;;;5052171;28;20033;-66
2023/08/13 03:49:04;;;;;;;9.80;7.40;;;16.10;99.90;;;;;;5053341;28;20383;-66
2023/08/13 03:51:30;;;;;;;9.00;8.10;;;16.10;99.90;;;;;;5053697;28;20060;-66
2023/08/13 03:53:56;;;;;;;7.80;7.10;;;16.10;99.90;;;;;;5052238;28;20033;-66
2023/08/13 03:56:23;;;;;;;7.68;6.97;;;16.10;99.90;;;;;;5053727;28;20087;-66
2023/08/13 03:58:48;;;;;;;8.20;7.43;;;16.10;99.90;;;;;;5053438;28;20025;-66
2023/08/13 04:01:14;;;;;;;12.27;7.63;;;16.10;99.90;;;;;;5052268;28;20031;-66
2023/08/13 04:03:40;;;;;;;11.02;7.82;;;16.10;99.90;;;;;;5053106;28;20028;-65
2023/08/13 04:06:06;;;;;;;8.45;7.47;;;16.10;99.90;;;;;;5052082;28;20127;-66
2023/08/13 04:08:34;;;;;;;8.35;7.05;;;16.10;99.90;;;;;;5056479;28;20036;-66
2023/08/13 04:10:59;;;;;;;7.57;6.73;;;16.10;99.90;;;;;;5057378;28;20086;-66
2023/08/13 04:13:25;;;;;;;9.73;7.45;;;16.10;99.90;;;;;;5057172;28;20044;-66
2023/08/13 04:15:51;;;;;;;9.50;7.15;;;16.10;99.90;;;;;;5055928;28;20455;-66
2023/08/13 04:18:16;;;;;;;7.93;7.20;;;16.10;99.90;;;;;;5055768;28;20021;-66
2023/08/13 04:20:42;;;;;;;8.13;7.32;;;16.10;99.90;;;;;;5055787;28;20025;-66
2023/08/13 04:23:08;;;;;;;11.32;7.38;;;16.20;99.90;;;;;;5057074;28;20075;-65
2023/08/13 04:25:34;;;;;;;11.43;7.72;;;16.20;99.90;;;;;;5056587;28;20502;-65
2023/08/13 04:28:00;;;;;;;7.40;6.70;;;16.30;99.90;;;;;;5056855;28;20073;-66
2023/08/13 04:30:25;;;;;;;7.68;6.97;;;16.30;99.90;;;;;;5056644;28;20383;-66
2023/08/13 04:32:55;;;;;;;14.35;9.23;;;16.30;99.90;;;;;;5056897;28;20036;-66
2023/08/13 04:35:24;;;;;;;7.70;7.00;;;16.40;99.90;;;;;;5057135;28;20017;-66
2023/08/13 04:37:50;;;;;;;;;;;16.40;99.90;;;;;;5057467;28;20364;-66
2023/08/13 04:40:16;;;;;;;8.45;7.25;;;16.50;99.90;;;;;;5056648;28;20368;-65
2023/08/13 04:42:42;;;;;;;7.63;6.70;;;16.50;99.90;;;;;;5055422;28;20025;-66
2023/08/13 04:45:09;;;;;;;7.45;6.43;;;16.60;99.90;;;;;;5055348;28;20451;-66
2023/08/13 04:47:35;;;;;;;7.50;6.60;;;16.70;99.90;;;;;;5056514;28;20116;-65
2023/08/13 04:50:00;;;;;;;7.40;6.32;;;16.80;99.90;;;;;;5055325;28;20514;-65
2023/08/13 04:52:26;;;;;;;7.00;6.30;;;16.90;99.90;;;;;;5056269;28;20021;-66
2023/08/13 04:54:52;;;;;;;6.93;6.32;;;16.90;99.90;;;;;;5056460;28;20074;-66
2023/08/13 04:57:17;;;;;;;6.63;5.93;;;17.00;99.90;;;;;;5056421;28;20370;-65
2023/08/13 04:59:43;;;;;;;6.70;5.97;;;17.10;99.90;;;;;;5056077;28;20382;-65
2023/08/13 05:02:08;;;;;;;6.75;5.47;;;17.20;99.90;;;;;;5056486;28;20025;-65
2023/08/13 05:04:34;;;;;;;6.25;5.75;;;17.30;99.90;;;;;;5056286;28;20025;-66
2023/08/13 05:07:00;;;;;;;6.28;5.68;;;17.30;99.90;;;;;;5055868;28;20041;-65
2023/08/13 05:09:25;;;;;;;6.38;5.63;;;17.30;99.90;;;;;;5056180;28;20382;-65
2023/08/13 05:11:51;;;;;;;5.78;5.00;;;17.40;99.90;;;;;;5056215;28;20028;-66
2023/08/13 05:14:17;;;;;;;7.15;5.43;;;17.40;99.90;;;;;;5055877;28;20032;-66
2023/08/13 05:16:43;;;;;;;6.32;5.40;;;17.40;99.90;;;;;;5054728;28;20086;-66
2023/08/13 05:19:08;;;;;;;6.13;5.03;;;17.40;99.90;;;;;;5055122;28;20425;-66
2023/08/13 05:21:34;;;;;;;7.75;5.22;;;17.50;99.90;;;;;;5056726;28;20039;-66
2023/08/13 05:23:59;;;;;;;7.70;5.28;;;17.50;99.90;;;;;;5054329;28;20490;-66
2023/08/13 05:26:25;;;;;;;8.15;5.38;;;17.70;99.90;;;;;;5055527;28;20102;-66
2023/08/13 05:28:51;;;;;;;6.60;4.80;;;17.80;99.90;;;;;;5055864;28;20052;-66
2023/08/13 05:31:17;;;;;;;5.10;4.70;;;17.90;99.90;;;;;;5054874;28;20098;-66
2023/08/13 05:33:43;;;;;;;5.28;4.82;;;18.00;99.90;;;;;;5054473;28;20425;-61
2023/08/13 05:36:08;;;;;;;5.40;4.90;;;18.20;99.90;;;;;;5055787;28;20049;-61
2023/08/13 05:38:34;;;;;;;6.85;5.07;;;18.40;99.90;;;;;;5055643;28;20029;-60
2023/08/13 05:41:00;;;;;;;7.43;4.10;;;18.50;99.90;;;;;;5054312;28;20029;-60
2023/08/13 05:43:25;;;;;;;6.20;4.80;;;18.70;99.90;;;;;;5055256;28;20033;-61
2023/08/13 05:45:51;;;;;;;4.72;4.30;;;18.90;99.90;;;;;;5054121;28;20025;-64
2023/08/13 05:48:17;;;;;;;5.55;3.83;;;19.00;99.90;;;;;;5054109;28;20125;-67
2023/08/13 05:50:42;;;;;;;4.50;4.10;;;19.10;99.90;;;;;;5055117;28;20025;-69
2023/08/13 05:53:08;;;;;;;5.28;3.92;;;19.30;99.90;;;;;;5055267;28;20115;-67
2023/08/13 05:55:34;;;;;;;3.95;3.65;;;19.50;99.90;;;;;;5055238;28;20480;-65
2023/08/13 05:57:59;;;;;;;6.43;4.05;;;19.70;99.90;;;;;;5054064;28;20033;-66
2023/08/13 06:00:25;;;;;;;7.18;3.97;;;19.90;99.90;;;;;;5055326;28;20610;-79
2023/08/13 06:02:51;;;;;;;6.85;4.65;;;20.00;99.90;;;;;;5054441;28;20035;-81
2023/08/13 06:05:16;;;;;;;4.40;4.00;;;20.20;99.90;;;;;;5054082;28;20477;-81
2023/08/13 06:07:42;;;;;;;4.15;3.85;;;20.50;99.90;;;;;;5054126;28;20079;-80
2023/08/13 06:10:08;;;;;;;4.93;3.63;;;20.90;99.90;;;;;;5053466;28;20124;-81
2023/08/13 06:12:35;;;;;;;4.03;3.72;;;21.30;99.90;;;;;;5053801;28;20032;-81
2023/08/13 06:15:00;;;;;;;3.67;3.38;;;21.60;99.90;;;;;;5053685;28;20021;-79
2023/08/13 06:17:26;;;;;;;4.70;2.92;;;22.10;99.90;;;;;;5054757;28;20522;-79
2023/08/13 06:19:52;;;;;;;10.73;3.30;;;22.50;99.90;;;;;;5054846;28;20391;-75
2023/08/13 06:22:19;;;;;;;4.72;3.03;;;22.90;99.90;;;;;;5053321;28;20068;-71
2023/08/13 06:24:44;;;;;;;5.88;3.47;;;23.20;99.90;;;;;;5054806;28;20099;-70
2023/08/13 06:27:11;;;;;;;4.70;3.10;;;23.60;99.90;;;;;;5054318;28;20052;-70
2023/08/13 06:29:36;;;;;;;8.93;3.70;;;24.00;99.90;;;;;;5053248;28;20098;-71
2023/08/13 06:32:02;;;;;;;3.03;2.60;;;24.40;99.90;;;;;;5053554;28;20425;-72
2023/08/13 06:34:27;;;;;;;9.43;3.30;;;24.80;99.90;;;;;;5054085;28;20107;-72
2023/08/13 06:36:53;;;;;;;6.55;3.30;;;25.30;99.90;;;;;;5054476;28;20033;-72
2023/08/13 06:39:21;;;;;;;4.70;2.78;;;25.80;99.90;;;;;;5053239;28;20374;-62
2023/08/13 06:41:47;;;;;;;6.28;3.03;;;26.20;99.90;;;;;;5054519;28;20462;-65
2023/08/13 06:44:20;;;;;;;4.00;2.88;;;26.40;99.90;;;;;;5053067;28;20075;-61
2023/08/13 06:46:49;;;;;;;3.05;2.72;;;26.50;99.90;;;;;;5054237;28;20182;-62
2023/08/13 06:49:15;;;;;;;3.53;2.75;;;26.80;99.90;;;;;;5054231;28;20040;-62
2023/08/13 06:51:41;;;;;;;4.55;3.05;;;27.10;99.90;;;;;;5054557;28;20100;-63
2023/08/13 06:54:07;;;;;;;2.97;2.60;;;27.10;99.90;;;;;;5054337;28;20032;-70
2023/08/13 06:56:35;;;;;;;6.20;2.63;;;27.20;99.90;;;;;;5053098;28;20356;-69
